sensor_id;sensor_type;location;lat;lon;timestamp;P1;durP1;ratioP1;P2;durP2;ratioP2
34064;SDS011;20339;49.754;20.158;2022-08-19T00:02:08;11.40;;;10.30;;
34064;SDS011;20339;49.754;20.158;2022-08-19T00:04:36;11.40;;;10.20;;
34064;SDS011;20339;49.754;20.158;2022-08-19T00:07:05;11.70;;;10.20;;
34064;SDS011;20339;49.754;20.158;2022-08-19T00:09:34;11.80;;;10.50;;
34064;SDS011;20339;49.754;20.158;2022-08-19T00:12:03;11.30;;;10.20;;
34064;SDS011;20339;49.754;20.158;2022-08-19T00:14:32;12.20;;;10.60;;
34064;SDS011;20339;49.754;20.158;2022-08-19T00:17:01;13.60;;;11.40;;
34064;SDS011;20339;49.754;20.158;2022-08-19T00:19:30;13.40;;;10.90;;
34064;SDS011;20339;49.754;20.158;2022-08-19T00:21:59;11.70;;;10.60;;
34064;SDS011;20339;49.754;20.158;2022-08-19T00:24:29;12.60;;;10.40;;
34064;SDS011;20339;49.754;20.158;2022-08-19T00:26:58;12.50;;;11.20;;
34064;SDS011;20339;49.754;20.158;2022-08-19T00:29:28;14.70;;;10.70;;
34064;SDS011;20339;49.754;20.158;2022-08-19T00:31:57;11.70;;;10.50;;
34064;SDS011;20339;49.754;20.158;2022-08-19T00:34:26;12.10;;;10.70;;
34064;SDS011;20339;49.754;20.158;2022-08-19T00:36:55;12.00;;;10.80;;
34064;SDS011;20339;49.754;20.158;2022-08-19T00:39:24;11.80;;;10.10;;
34064;SDS011;20339;49.754;20.158;2022-08-19T00:41:52;15.00;;;10.50;;
34064;SDS011;20339;49.754;20.158;2022-08-19T00:44:22;11.80;;;10.10;;
34064;SDS011;20339;49.754;20.158;2022-08-19T00:46:54;11.80;;;10.50;;
34064;SDS011;20339;49.754;20.158;2022-08-19T00:49:27;11.80;;;10.60;;
34064;SDS011;20339;49.754;20.158;2022-08-19T00:52:00;12.20;;;10.60;;
34064;SDS011;20339;49.754;20.158;2022-08-19T00:54:32;12.00;;;10.60;;
34064;SDS011;20339;49.754;20.158;2022-08-19T00:57:01;11.60;;;10.40;;
34064;SDS011;20339;49.754;20.158;2022-08-19T00:59:33;13.70;;;10.50;;
34064;SDS011;20339;49.754;20.158;2022-08-19T01:02:05;12.20;;;11.00;;
34064;SDS011;20339;49.754;20.158;2022-08-19T01:04:34;13.00;;;10.70;;
34064;SDS011;20339;49.754;20.158;2022-08-19T01:07:02;13.10;;;10.10;;
34064;SDS011;20339;49.754;20.158;2022-08-19T01:09:31;12.80;;;10.40;;
34064;SDS011;20339;49.754;20.158;2022-08-19T01:12:00;12.80;;;10.30;;
34064;SDS011;20339;49.754;20.158;2022-08-19T01:14:30;11.60;;;9.70;;
34064;SDS011;20339;49.754;20.158;2022-08-19T01:16:59;12.30;;;10.10;;
34064;SDS011;20339;49.754;20.158;2022-08-19T01:19:29;11.80;;;10.20;;
34064;SDS011;20339;49.754;20.158;2022-08-19T01:22:03;11.80;;;10.60;;
34064;SDS011;20339;49.754;20.158;2022-08-19T01:24:36;11.80;;;10.50;;
34064;SDS011;20339;49.754;20.158;2022-08-19T01:27:05;13.40;;;9.80;;
34064;SDS011;20339;49.754;20.158;2022-08-19T01:29:36;11.20;;;10.00;;
34064;SDS011;20339;49.754;20.158;2022-08-19T01:32:06;12.90;;;10.60;;
34064;SDS011;20339;49.754;20.158;2022-08-19T01:34:36;11.20;;;10.00;;
34064;SDS011;20339;49.754;20.158;2022-08-19T01:37:06;12.30;;;11.10;;
34064;SDS011;20339;49.754;20.158;2022-08-19T01:39:38;12.60;;;10.60;;
34064;SDS011;20339;49.754;20.158;2022-08-19T01:44:37;11.10;;;9.70;;
34064;SDS011;20339;49.754;20.158;2022-08-19T01:47:08;11.90;;;10.70;;
34064;SDS011;20339;49.754;20.158;2022-08-19T01:49:36;13.00;;;10.20;;
34064;SDS011;20339;49.754;20.158;2022-08-19T01:52:05;12.10;;;10.80;;
34064;SDS011;20339;49.754;20.158;2022-08-19T01:54:34;11.60;;;10.40;;
34064;SDS011;20339;49.754;20.158;2022-08-19T01:57:03;11.40;;;10.20;;
34064;SDS011;20339;49.754;20.158;2022-08-19T01:59:35;12.40;;;10.90;;
34064;SDS011;20339;49.754;20.158;2022-08-19T02:02:04;12.50;;;10.30;;
34064;SDS011;20339;49.754;20.158;2022-08-19T02:07:04;13.60;;;10.60;;
34064;SDS011;20339;49.754;20.158;2022-08-19T02:09:33;11.90;;;9.80;;
34064;SDS011;20339;49.754;20.158;2022-08-19T02:12:02;11.80;;;10.50;;
34064;SDS011;20339;49.754;20.158;2022-08-19T02:14:31;10.30;;;9.30;;
34064;SDS011;20339;49.754;20.158;2022-08-19T02:17:01;11.40;;;10.10;;
34064;SDS011;20339;49.754;20.158;2022-08-19T02:19:30;13.10;;;10.10;;
34064;SDS011;20339;49.754;20.158;2022-08-19T02:21:59;11.70;;;10.50;;
34064;SDS011;20339;49.754;20.158;2022-08-19T02:24:30;11.90;;;10.70;;
34064;SDS011;20339;49.754;20.158;2022-08-19T02:26:58;12.30;;;11.00;;
34064;SDS011;20339;49.754;20.158;2022-08-19T02:29:29;13.90;;;11.60;;
34064;SDS011;20339;49.754;20.158;2022-08-19T02:31:58;13.30;;;11.90;;
34064;SDS011;20339;49.754;20.158;2022-08-19T02:34:26;13.20;;;11.90;;
34064;SDS011;20339;49.754;20.158;2022-08-19T02:36:55;14.50;;;12.10;;
34064;SDS011;20339;49.754;20.158;2022-08-19T02:39:23;13.20;;;11.70;;
34064;SDS011;20339;49.754;20.158;2022-08-19T02:41:52;12.40;;;11.00;;
34064;SDS011;20339;49.754;20.158;2022-08-19T02:44:21;14.60;;;11.00;;
34064;SDS011;20339;49.754;20.158;2022-08-19T02:46:49;12.40;;;11.10;;
34064;SDS011;20339;49.754;20.158;2022-08-19T02:49:18;12.10;;;11.00;;
34064;SDS011;20339;49.754;20.158;2022-08-19T02:51:46;12.90;;;10.90;;
34064;SDS011;20339;49.754;20.158;2022-08-19T02:54:15;13.70;;;12.30;;
34064;SDS011;20339;49.754;20.158;2022-08-19T02:56:44;12.90;;;11.10;;
34064;SDS011;20339;49.754;20.158;2022-08-19T02:59:13;12.60;;;11.30;;
34064;SDS011;20339;49.754;20.158;2022-08-19T03:01:41;12.30;;;11.10;;
34064;SDS011;20339;49.754;20.158;2022-08-19T03:04:11;11.90;;;10.70;;
34064;SDS011;20339;49.754;20.158;2022-08-19T03:06:41;12.90;;;11.10;;
34064;SDS011;20339;49.754;20.158;2022-08-19T03:09:13;12.20;;;11.00;;
34064;SDS011;20339;49.754;20.158;2022-08-19T03:11:43;11.70;;;10.60;;
34064;SDS011;20339;49.754;20.158;2022-08-19T03:14:11;13.00;;;11.30;;
34064;SDS011;20339;49.754;20.158;2022-08-19T03:16:41;12.30;;;10.90;;
34064;SDS011;20339;49.754;20.158;2022-08-19T03:19:11;12.30;;;11.00;;
34064;SDS011;20339;49.754;20.158;2022-08-19T03:21:41;12.90;;;11.50;;
34064;SDS011;20339;49.754;20.158;2022-08-19T03:24:12;14.70;;;11.60;;
34064;SDS011;20339;49.754;20.158;2022-08-19T03:26:42;14.20;;;12.10;;
34064;SDS011;20339;49.754;20.158;2022-08-19T03:29:12;12.10;;;10.90;;
34064;SDS011;20339;49.754;20.158;2022-08-19T03:31:42;11.90;;;10.70;;
34064;SDS011;20339;49.754;20.158;2022-08-19T03:34:12;11.60;;;10.50;;
34064;SDS011;20339;49.754;20.158;2022-08-19T03:36:44;13.40;;;11.00;;
34064;SDS011;20339;49.754;20.158;2022-08-19T03:39:13;12.80;;;10.70;;
34064;SDS011;20339;49.754;20.158;2022-08-19T03:41:42;12.60;;;10.90;;
34064;SDS011;20339;49.754;20.158;2022-08-19T03:44:13;11.50;;;10.30;;
34064;SDS011;20339;49.754;20.158;2022-08-19T03:46:44;11.20;;;10.00;;
34064;SDS011;20339;49.754;20.158;2022-08-19T03:49:14;11.70;;;10.50;;
34064;SDS011;20339;49.754;20.158;2022-08-19T03:51:44;11.10;;;9.80;;
34064;SDS011;20339;49.754;20.158;2022-08-19T03:54:16;12.20;;;10.80;;
34064;SDS011;20339;49.754;20.158;2022-08-19T03:56:46;11.60;;;10.40;;
34064;SDS011;20339;49.754;20.158;2022-08-19T04:01:45;10.90;;;9.90;;
34064;SDS011;20339;49.754;20.158;2022-08-19T04:04:14;12.10;;;10.50;;
34064;SDS011;20339;49.754;20.158;2022-08-19T04:06:42;11.10;;;9.80;;
34064;SDS011;20339;49.754;20.158;2022-08-19T04:09:13;11.90;;;10.70;;
34064;SDS011;20339;49.754;20.158;2022-08-19T04:11:43;11.00;;;9.90;;
34064;SDS011;20339;49.754;20.158;2022-08-19T04:14:14;11.90;;;10.70;;
34064;SDS011;20339;49.754;20.158;2022-08-19T04:16:45;12.40;;;10.10;;
34064;SDS011;20339;49.754;20.158;2022-08-19T04:19:16;12.10;;;9.80;;
34064;SDS011;20339;49.754;20.158;2022-08-19T04:21:46;11.60;;;10.20;;
34064;SDS011;20339;49.754;20.158;2022-08-19T04:24:16;11.50;;;9.90;;
34064;SDS011;20339;49.754;20.158;2022-08-19T04:26:46;12.20;;;10.10;;
34064;SDS011;20339;49.754;20.158;2022-08-19T04:29:17;11.20;;;10.00;;
34064;SDS011;20339;49.754;20.158;2022-08-19T04:31:48;11.20;;;10.10;;
34064;SDS011;20339;49.754;20.158;2022-08-19T04:34:18;11.20;;;9.80;;
34064;SDS011;20339;49.754;20.158;2022-08-19T04:36:49;15.40;;;10.30;;
34064;SDS011;20339;49.754;20.158;2022-08-19T04:39:19;11.30;;;10.20;;
34064;SDS011;20339;49.754;20.158;2022-08-19T04:42:10;11.10;;;10.00;;
34064;SDS011;20339;49.754;20.158;2022-08-19T04:44:57;10.70;;;9.50;;
34064;SDS011;20339;49.754;20.158;2022-08-19T04:47:26;10.70;;;9.50;;
34064;SDS011;20339;49.754;20.158;2022-08-19T04:49:54;11.50;;;9.30;;
34064;SDS011;20339;49.754;20.158;2022-08-19T04:52:23;10.10;;;9.10;;
34064;SDS011;20339;49.754;20.158;2022-08-19T04:54:52;9.30;;;8.40;;
34064;SDS011;20339;49.754;20.158;2022-08-19T04:57:22;11.40;;;8.60;;
34064;SDS011;20339;49.754;20.158;2022-08-19T04:59:54;10.30;;;9.10;;
34064;SDS011;20339;49.754;20.158;2022-08-19T05:02:23;13.10;;;8.80;;
34064;SDS011;20339;49.754;20.158;2022-08-19T05:04:55;9.70;;;8.40;;
34064;SDS011;20339;49.754;20.158;2022-08-19T05:07:26;10.30;;;8.10;;
34064;SDS011;20339;49.754;20.158;2022-08-19T05:09:54;9.30;;;8.10;;
34064;SDS011;20339;49.754;20.158;2022-08-19T05:12:23;9.10;;;8.10;;
34064;SDS011;20339;49.754;20.158;2022-08-19T05:14:52;8.90;;;8.00;;
34064;SDS011;20339;49.754;20.158;2022-08-19T05:17:21;10.70;;;8.10;;
34064;SDS011;20339;49.754;20.158;2022-08-19T05:19:49;9.10;;;8.20;;
34064;SDS011;20339;49.754;20.158;2022-08-19T05:22:36;9.50;;;8.40;;
34064;SDS011;20339;49.754;20.158;2022-08-19T05:25:06;14.40;;;9.00;;
34064;SDS011;20339;49.754;20.158;2022-08-19T05:27:38;9.90;;;7.80;;
34064;SDS011;20339;49.754;20.158;2022-08-19T05:30:08;9.30;;;8.30;;
34064;SDS011;20339;49.754;20.158;2022-08-19T05:32:38;8.90;;;8.00;;
34064;SDS011;20339;49.754;20.158;2022-08-19T05:35:10;8.30;;;7.50;;
34064;SDS011;20339;49.754;20.158;2022-08-19T05:37:39;8.70;;;7.90;;
34064;SDS011;20339;49.754;20.158;2022-08-19T05:40:09;10.30;;;8.30;;
34064;SDS011;20339;49.754;20.158;2022-08-19T05:45:06;11.20;;;7.60;;
34064;SDS011;20339;49.754;20.158;2022-08-19T05:47:36;10.50;;;7.70;;
34064;SDS011;20339;49.754;20.158;2022-08-19T05:50:05;8.60;;;7.70;;
34064;SDS011;20339;49.754;20.158;2022-08-19T05:52:35;9.10;;;7.30;;
34064;SDS011;20339;49.754;20.158;2022-08-19T05:55:06;10.20;;;7.20;;
34064;SDS011;20339;49.754;20.158;2022-08-19T05:57:35;8.50;;;7.30;;
34064;SDS011;20339;49.754;20.158;2022-08-19T06:00:05;7.90;;;7.20;;
34064;SDS011;20339;49.754;20.158;2022-08-19T06:02:36;7.70;;;6.70;;
34064;SDS011;20339;49.754;20.158;2022-08-19T06:05:05;7.90;;;7.10;;
34064;SDS011;20339;49.754;20.158;2022-08-19T06:07:35;10.20;;;8.10;;
34064;SDS011;20339;49.754;20.158;2022-08-19T06:10:07;7.80;;;6.50;;
34064;SDS011;20339;49.754;20.158;2022-08-19T06:12:37;10.20;;;6.80;;
34064;SDS011;20339;49.754;20.158;2022-08-19T06:15:08;7.30;;;6.50;;
34064;SDS011;20339;49.754;20.158;2022-08-19T06:17:39;9.40;;;7.10;;
34064;SDS011;20339;49.754;20.158;2022-08-19T06:20:11;7.70;;;6.60;;
34064;SDS011;20339;49.754;20.158;2022-08-19T06:22:42;7.40;;;6.70;;
34064;SDS011;20339;49.754;20.158;2022-08-19T06:25:13;8.40;;;6.80;;
34064;SDS011;20339;49.754;20.158;2022-08-19T06:27:43;7.10;;;6.40;;
34064;SDS011;20339;49.754;20.158;2022-08-19T06:30:12;7.50;;;6.80;;
34064;SDS011;20339;49.754;20.158;2022-08-19T06:35:09;7.20;;;6.50;;
34064;SDS011;20339;49.754;20.158;2022-08-19T06:37:37;7.60;;;6.70;;
34064;SDS011;20339;49.754;20.158;2022-08-19T06:40:07;6.80;;;6.20;;
34064;SDS011;20339;49.754;20.158;2022-08-19T06:42:37;7.00;;;6.10;;
34064;SDS011;20339;49.754;20.158;2022-08-19T06:45:07;7.00;;;6.20;;
34064;SDS011;20339;49.754;20.158;2022-08-19T06:47:36;7.30;;;6.60;;
34064;SDS011;20339;49.754;20.158;2022-08-19T06:50:06;6.80;;;6.10;;
34064;SDS011;20339;49.754;20.158;2022-08-19T06:52:35;7.00;;;6.30;;
34064;SDS011;20339;49.754;20.158;2022-08-19T06:55:06;9.00;;;6.90;;
34064;SDS011;20339;49.754;20.158;2022-08-19T06:57:35;6.70;;;6.00;;
34064;SDS011;20339;49.754;20.158;2022-08-19T07:00:05;6.60;;;5.90;;
34064;SDS011;20339;49.754;20.158;2022-08-19T07:02:37;7.60;;;6.10;;
34064;SDS011;20339;49.754;20.158;2022-08-19T07:05:07;7.50;;;6.60;;
34064;SDS011;20339;49.754;20.158;2022-08-19T07:07:36;7.20;;;6.40;;
34064;SDS011;20339;49.754;20.158;2022-08-19T07:10:05;6.30;;;5.70;;
34064;SDS011;20339;49.754;20.158;2022-08-19T07:12:36;9.50;;;6.10;;
34064;SDS011;20339;49.754;20.158;2022-08-19T07:17:35;6.20;;;5.60;;
34064;SDS011;20339;49.754;20.158;2022-08-19T07:20:07;8.00;;;6.00;;
34064;SDS011;20339;49.754;20.158;2022-08-19T07:22:37;7.30;;;6.20;;
34064;SDS011;20339;49.754;20.158;2022-08-19T07:30:04;6.80;;;6.00;;
34064;SDS011;20339;49.754;20.158;2022-08-19T07:32:34;7.60;;;6.10;;
34064;SDS011;20339;49.754;20.158;2022-08-19T07:35:02;6.70;;;6.10;;
34064;SDS011;20339;49.754;20.158;2022-08-19T07:37:32;7.00;;;5.50;;
34064;SDS011;20339;49.754;20.158;2022-08-19T07:40:02;6.30;;;5.70;;
34064;SDS011;20339;49.754;20.158;2022-08-19T07:42:33;7.00;;;6.40;;
34064;SDS011;20339;49.754;20.158;2022-08-19T07:47:30;7.90;;;6.20;;
34064;SDS011;20339;49.754;20.158;2022-08-19T07:52:26;7.90;;;5.80;;
34064;SDS011;20339;49.754;20.158;2022-08-19T07:54:56;7.10;;;5.50;;
34064;SDS011;20339;49.754;20.158;2022-08-19T07:57:26;7.80;;;6.50;;
34064;SDS011;20339;49.754;20.158;2022-08-19T07:59:55;7.10;;;6.40;;
34064;SDS011;20339;49.754;20.158;2022-08-19T08:04:51;6.20;;;5.60;;
34064;SDS011;20339;49.754;20.158;2022-08-19T08:07:37;6.80;;;6.10;;
34064;SDS011;20339;49.754;20.158;2022-08-19T08:10:24;6.50;;;5.80;;
34064;SDS011;20339;49.754;20.158;2022-08-19T08:15:21;6.20;;;5.70;;
34064;SDS011;20339;49.754;20.158;2022-08-19T08:17:50;6.10;;;5.50;;
34064;SDS011;20339;49.754;20.158;2022-08-19T08:20:20;6.30;;;5.60;;
34064;SDS011;20339;49.754;20.158;2022-08-19T08:22:48;6.20;;;5.60;;
34064;SDS011;20339;49.754;20.158;2022-08-19T08:25:35;6.20;;;5.60;;
34064;SDS011;20339;49.754;20.158;2022-08-19T08:28:04;6.50;;;5.50;;
34064;SDS011;20339;49.754;20.158;2022-08-19T08:30:35;7.50;;;5.50;;
34064;SDS011;20339;49.754;20.158;2022-08-19T08:33:06;6.10;;;5.50;;
34064;SDS011;20339;49.754;20.158;2022-08-19T08:35:35;5.70;;;5.20;;
34064;SDS011;20339;49.754;20.158;2022-08-19T08:38:04;7.00;;;5.50;;
34064;SDS011;20339;49.754;20.158;2022-08-19T08:40:37;6.30;;;5.70;;
34064;SDS011;20339;49.754;20.158;2022-08-19T08:43:11;6.70;;;6.10;;
34064;SDS011;20339;49.754;20.158;2022-08-19T08:45:49;9.20;;;6.40;;
34064;SDS011;20339;49.754;20.158;2022-08-19T08:48:24;8.50;;;6.30;;
34064;SDS011;20339;49.754;20.158;2022-08-19T08:50:59;7.10;;;6.40;;
34064;SDS011;20339;49.754;20.158;2022-08-19T08:53:30;9.50;;;6.10;;
34064;SDS011;20339;49.754;20.158;2022-08-19T08:56:02;6.90;;;6.20;;
34064;SDS011;20339;49.754;20.158;2022-08-19T08:58:47;6.90;;;6.20;;
34064;SDS011;20339;49.754;20.158;2022-08-19T09:01:25;8.60;;;6.20;;
34064;SDS011;20339;49.754;20.158;2022-08-19T09:03:54;8.70;;;6.10;;
34064;SDS011;20339;49.754;20.158;2022-08-19T09:06:25;9.50;;;6.80;;
34064;SDS011;20339;49.754;20.158;2022-08-19T09:09:01;8.30;;;7.00;;
34064;SDS011;20339;49.754;20.158;2022-08-19T09:11:37;7.90;;;6.60;;
34064;SDS011;20339;49.754;20.158;2022-08-19T09:14:18;7.70;;;6.90;;
34064;SDS011;20339;49.754;20.158;2022-08-19T09:16:55;9.60;;;7.10;;
34064;SDS011;20339;49.754;20.158;2022-08-19T09:19:25;7.90;;;7.10;;
34064;SDS011;20339;49.754;20.158;2022-08-19T09:21:54;7.50;;;6.70;;
34064;SDS011;20339;49.754;20.158;2022-08-19T09:24:23;9.50;;;7.30;;
34064;SDS011;20339;49.754;20.158;2022-08-19T09:26:52;8.00;;;6.60;;
34064;SDS011;20339;49.754;20.158;2022-08-19T09:29:23;9.10;;;7.00;;
34064;SDS011;20339;49.754;20.158;2022-08-19T09:31:52;9.00;;;6.90;;
34064;SDS011;20339;49.754;20.158;2022-08-19T09:34:21;7.60;;;6.80;;
34064;SDS011;20339;49.754;20.158;2022-08-19T09:36:50;9.20;;;6.60;;
34064;SDS011;20339;49.754;20.158;2022-08-19T09:39:21;7.20;;;6.50;;
34064;SDS011;20339;49.754;20.158;2022-08-19T09:41:51;9.70;;;6.60;;
34064;SDS011;20339;49.754;20.158;2022-08-19T09:44:20;9.20;;;7.60;;
34064;SDS011;20339;49.754;20.158;2022-08-19T09:46:49;8.20;;;7.20;;
34064;SDS011;20339;49.754;20.158;2022-08-19T09:49:19;8.50;;;7.70;;
34064;SDS011;20339;49.754;20.158;2022-08-19T09:51:50;8.60;;;7.40;;
34064;SDS011;20339;49.754;20.158;2022-08-19T09:54:20;9.30;;;7.80;;
34064;SDS011;20339;49.754;20.158;2022-08-19T09:56:49;8.80;;;7.50;;
34064;SDS011;20339;49.754;20.158;2022-08-19T09:59:19;8.70;;;7.10;;
34064;SDS011;20339;49.754;20.158;2022-08-19T10:01:49;10.40;;;7.90;;
34064;SDS011;20339;49.754;20.158;2022-08-19T10:04:18;8.60;;;7.80;;
34064;SDS011;20339;49.754;20.158;2022-08-19T10:06:48;9.40;;;8.50;;
34064;SDS011;20339;49.754;20.158;2022-08-19T10:09:18;9.60;;;8.70;;
34064;SDS011;20339;49.754;20.158;2022-08-19T10:11:47;10.00;;;8.30;;
34064;SDS011;20339;49.754;20.158;2022-08-19T10:14:16;10.00;;;8.30;;
34064;SDS011;20339;49.754;20.158;2022-08-19T10:16:49;10.10;;;8.70;;
34064;SDS011;20339;49.754;20.158;2022-08-19T10:19:18;10.90;;;8.30;;
34064;SDS011;20339;49.754;20.158;2022-08-19T10:21:48;8.90;;;8.00;;
34064;SDS011;20339;49.754;20.158;2022-08-19T10:24:17;16.80;;;8.90;;
34064;SDS011;20339;49.754;20.158;2022-08-19T10:26:47;9.10;;;7.60;;
34064;SDS011;20339;49.754;20.158;2022-08-19T10:29:16;11.20;;;8.50;;
34064;SDS011;20339;49.754;20.158;2022-08-19T10:31:44;10.30;;;8.50;;
34064;SDS011;20339;49.754;20.158;2022-08-19T10:34:14;11.10;;;8.50;;
34064;SDS011;20339;49.754;20.158;2022-08-19T10:36:44;10.10;;;8.60;;
34064;SDS011;20339;49.754;20.158;2022-08-19T10:39:13;9.50;;;8.60;;
34064;SDS011;20339;49.754;20.158;2022-08-19T10:41:41;9.60;;;8.60;;
34064;SDS011;20339;49.754;20.158;2022-08-19T10:44:11;10.50;;;8.40;;
34064;SDS011;20339;49.754;20.158;2022-08-19T10:46:41;12.60;;;9.00;;
34064;SDS011;20339;49.754;20.158;2022-08-19T10:49:11;8.90;;;8.00;;
34064;SDS011;20339;49.754;20.158;2022-08-19T10:51:40;9.60;;;8.50;;
34064;SDS011;20339;49.754;20.158;2022-08-19T10:54:27;11.20;;;8.60;;
34064;SDS011;20339;49.754;20.158;2022-08-19T10:57:10;9.10;;;8.20;;
34064;SDS011;20339;49.754;20.158;2022-08-19T10:59:41;9.20;;;8.30;;
34064;SDS011;20339;49.754;20.158;2022-08-19T11:02:10;10.20;;;9.20;;
34064;SDS011;20339;49.754;20.158;2022-08-19T11:04:39;9.10;;;8.20;;
34064;SDS011;20339;49.754;20.158;2022-08-19T11:07:09;9.50;;;8.50;;
34064;SDS011;20339;49.754;20.158;2022-08-19T11:09:39;9.60;;;8.60;;
34064;SDS011;20339;49.754;20.158;2022-08-19T11:12:09;9.40;;;8.40;;
34064;SDS011;20339;49.754;20.158;2022-08-19T11:14:39;9.90;;;8.90;;
34064;SDS011;20339;49.754;20.158;2022-08-19T11:17:08;8.90;;;8.10;;
34064;SDS011;20339;49.754;20.158;2022-08-19T11:19:40;9.40;;;8.10;;
34064;SDS011;20339;49.754;20.158;2022-08-19T11:22:09;11.00;;;8.30;;
34064;SDS011;20339;49.754;20.158;2022-08-19T11:24:38;9.40;;;8.40;;
34064;SDS011;20339;49.754;20.158;2022-08-19T11:27:08;11.00;;;9.00;;
34064;SDS011;20339;49.754;20.158;2022-08-19T11:29:38;11.20;;;8.70;;
34064;SDS011;20339;49.754;20.158;2022-08-19T11:32:10;9.90;;;8.90;;
34064;SDS011;20339;49.754;20.158;2022-08-19T11:34:42;10.40;;;8.80;;
34064;SDS011;20339;49.754;20.158;2022-08-19T11:37:10;12.10;;;8.60;;
34064;SDS011;20339;49.754;20.158;2022-08-19T11:39:39;11.00;;;8.10;;
34064;SDS011;20339;49.754;20.158;2022-08-19T11:42:08;11.10;;;8.10;;
34064;SDS011;20339;49.754;20.158;2022-08-19T11:44:56;13.50;;;8.40;;
34064;SDS011;20339;49.754;20.158;2022-08-19T11:47:25;12.00;;;8.20;;
34064;SDS011;20339;49.754;20.158;2022-08-19T11:49:53;9.50;;;7.70;;
34064;SDS011;20339;49.754;20.158;2022-08-19T11:52:22;9.50;;;8.60;;
34064;SDS011;20339;49.754;20.158;2022-08-19T11:54:52;9.90;;;8.90;;
34064;SDS011;20339;49.754;20.158;2022-08-19T11:57:26;10.20;;;9.00;;
34064;SDS011;20339;49.754;20.158;2022-08-19T11:59:55;11.20;;;8.50;;
34064;SDS011;20339;49.754;20.158;2022-08-19T12:02:24;9.50;;;8.20;;
34064;SDS011;20339;49.754;20.158;2022-08-19T12:04:54;9.30;;;8.30;;
34064;SDS011;20339;49.754;20.158;2022-08-19T12:07:23;11.00;;;9.30;;
34064;SDS011;20339;49.754;20.158;2022-08-19T12:09:52;8.50;;;7.70;;
34064;SDS011;20339;49.754;20.158;2022-08-19T12:12:20;9.80;;;8.80;;
34064;SDS011;20339;49.754;20.158;2022-08-19T12:14:51;10.10;;;8.70;;
34064;SDS011;20339;49.754;20.158;2022-08-19T12:17:23;9.70;;;8.70;;
34064;SDS011;20339;49.754;20.158;2022-08-19T12:22:21;10.50;;;8.40;;
34064;SDS011;20339;49.754;20.158;2022-08-19T12:24:50;9.60;;;8.10;;
34064;SDS011;20339;49.754;20.158;2022-08-19T12:27:20;10.10;;;8.00;;
34064;SDS011;20339;49.754;20.158;2022-08-19T12:29:49;9.30;;;7.70;;
34064;SDS011;20339;49.754;20.158;2022-08-19T12:32:17;9.20;;;8.30;;
34064;SDS011;20339;49.754;20.158;2022-08-19T12:34:46;9.10;;;8.20;;
34064;SDS011;20339;49.754;20.158;2022-08-19T12:37:14;9.20;;;8.10;;
34064;SDS011;20339;49.754;20.158;2022-08-19T12:39:46;9.60;;;8.40;;
34064;SDS011;20339;49.754;20.158;2022-08-19T12:42:15;9.10;;;7.80;;
34064;SDS011;20339;49.754;20.158;2022-08-19T12:44:49;9.70;;;7.90;;
34064;SDS011;20339;49.754;20.158;2022-08-19T12:47:18;9.70;;;7.80;;
34064;SDS011;20339;49.754;20.158;2022-08-19T12:49:47;8.40;;;7.50;;
34064;SDS011;20339;49.754;20.158;2022-08-19T12:52:16;8.50;;;7.50;;
34064;SDS011;20339;49.754;20.158;2022-08-19T12:54:49;9.80;;;7.50;;
34064;SDS011;20339;49.754;20.158;2022-08-19T12:57:19;9.00;;;7.60;;
34064;SDS011;20339;49.754;20.158;2022-08-19T12:59:51;10.10;;;7.80;;
34064;SDS011;20339;49.754;20.158;2022-08-19T13:02:20;9.30;;;6.70;;
34064;SDS011;20339;49.754;20.158;2022-08-19T13:04:49;7.90;;;6.70;;
34064;SDS011;20339;49.754;20.158;2022-08-19T13:07:18;9.30;;;7.20;;
34064;SDS011;20339;49.754;20.158;2022-08-19T13:09:46;9.40;;;7.20;;
34064;SDS011;20339;49.754;20.158;2022-08-19T13:12:18;7.60;;;6.70;;
34064;SDS011;20339;49.754;20.158;2022-08-19T13:14:47;6.90;;;6.10;;
34064;SDS011;20339;49.754;20.158;2022-08-19T13:17:16;8.90;;;6.60;;
34064;SDS011;20339;49.754;20.158;2022-08-19T13:19:45;7.20;;;6.00;;
34064;SDS011;20339;49.754;20.158;2022-08-19T13:22:14;12.00;;;6.70;;
34064;SDS011;20339;49.754;20.158;2022-08-19T13:24:43;10.30;;;6.70;;
34064;SDS011;20339;49.754;20.158;2022-08-19T13:27:12;8.60;;;6.70;;
34064;SDS011;20339;49.754;20.158;2022-08-19T13:29:42;13.70;;;6.80;;
34064;SDS011;20339;49.754;20.158;2022-08-19T13:32:29;7.00;;;5.50;;
34064;SDS011;20339;49.754;20.158;2022-08-19T13:35:16;8.30;;;6.50;;
34064;SDS011;20339;49.754;20.158;2022-08-19T13:37:45;11.40;;;5.30;;
34064;SDS011;20339;49.754;20.158;2022-08-19T13:40:15;9.00;;;5.70;;
34064;SDS011;20339;49.754;20.158;2022-08-19T13:42:52;9.30;;;5.30;;
34064;SDS011;20339;49.754;20.158;2022-08-19T13:45:22;7.00;;;5.60;;
34064;SDS011;20339;49.754;20.158;2022-08-19T13:47:54;9.40;;;5.70;;
34064;SDS011;20339;49.754;20.158;2022-08-19T13:50:26;6.40;;;5.10;;
34064;SDS011;20339;49.754;20.158;2022-08-19T13:52:58;8.30;;;5.50;;
34064;SDS011;20339;49.754;20.158;2022-08-19T13:55:27;5.80;;;5.20;;
34064;SDS011;20339;49.754;20.158;2022-08-19T13:57:57;8.20;;;5.40;;
34064;SDS011;20339;49.754;20.158;2022-08-19T14:00:38;9.00;;;5.30;;
34064;SDS011;20339;49.754;20.158;2022-08-19T14:03:10;7.50;;;5.70;;
34064;SDS011;20339;49.754;20.158;2022-08-19T14:05:39;6.70;;;5.20;;
34064;SDS011;20339;49.754;20.158;2022-08-19T14:08:07;9.60;;;5.20;;
34064;SDS011;20339;49.754;20.158;2022-08-19T14:10:36;8.60;;;5.60;;
34064;SDS011;20339;49.754;20.158;2022-08-19T14:13:05;9.00;;;5.00;;
34064;SDS011;20339;49.754;20.158;2022-08-19T14:15:34;6.40;;;5.40;;
34064;SDS011;20339;49.754;20.158;2022-08-19T14:18:04;6.70;;;4.90;;
34064;SDS011;20339;49.754;20.158;2022-08-19T14:20:34;7.10;;;5.60;;
34064;SDS011;20339;49.754;20.158;2022-08-19T14:25:31;8.80;;;5.90;;
34064;SDS011;20339;49.754;20.158;2022-08-19T14:28:00;7.70;;;5.40;;
34064;SDS011;20339;49.754;20.158;2022-08-19T14:30:30;8.90;;;5.70;;
34064;SDS011;20339;49.754;20.158;2022-08-19T14:33:00;7.80;;;6.40;;
34064;SDS011;20339;49.754;20.158;2022-08-19T14:35:30;6.70;;;5.80;;
34064;SDS011;20339;49.754;20.158;2022-08-19T14:38:01;8.70;;;5.80;;
34064;SDS011;20339;49.754;20.158;2022-08-19T14:40:31;7.40;;;5.10;;
34064;SDS011;20339;49.754;20.158;2022-08-19T14:43:01;8.80;;;6.00;;
34064;SDS011;20339;49.754;20.158;2022-08-19T14:45:32;7.30;;;5.60;;
34064;SDS011;20339;49.754;20.158;2022-08-19T14:48:05;9.10;;;6.40;;
34064;SDS011;20339;49.754;20.158;2022-08-19T14:50:35;10.90;;;5.90;;
34064;SDS011;20339;49.754;20.158;2022-08-19T14:53:05;7.90;;;5.90;;
34064;SDS011;20339;49.754;20.158;2022-08-19T14:55:35;10.40;;;6.40;;
34064;SDS011;20339;49.754;20.158;2022-08-19T14:58:04;11.00;;;6.00;;
34064;SDS011;20339;49.754;20.158;2022-08-19T15:00:35;7.40;;;5.90;;
34064;SDS011;20339;49.754;20.158;2022-08-19T15:03:04;8.20;;;6.50;;
34064;SDS011;20339;49.754;20.158;2022-08-19T15:05:33;8.10;;;6.00;;
34064;SDS011;20339;49.754;20.158;2022-08-19T15:08:03;6.90;;;5.50;;
34064;SDS011;20339;49.754;20.158;2022-08-19T15:10:33;9.40;;;6.40;;
34064;SDS011;20339;49.754;20.158;2022-08-19T15:13:02;7.20;;;6.10;;
34064;SDS011;20339;49.754;20.158;2022-08-19T15:15:30;9.00;;;6.30;;
34064;SDS011;20339;49.754;20.158;2022-08-19T15:17:59;8.00;;;5.90;;
34064;SDS011;20339;49.754;20.158;2022-08-19T15:20:31;11.20;;;6.30;;